sensor_id;sensor_type;location;lat;lon;timestamp;temperature;humidity
4324;DHT22;2175;51.018;6.994;2022-07-30T00:01:29;18.10;99.90
4324;DHT22;2175;51.018;6.994;2022-07-30T00:03:54;18.20;99.90
4324;DHT22;2175;51.018;6.994;2022-07-30T00:06:20;18.10;99.90
4324;DHT22;2175;51.018;6.994;2022-07-30T00:08:45;18.00;99.90
4324;DHT22;2175;51.018;6.994;2022-07-30T00:11:11;18.00;99.90
4324;DHT22;2175;51.018;6.994;2022-07-30T00:13:37;17.90;99.90
4324;DHT22;2175;51.018;6.994;2022-07-30T00:16:03;17.90;99.90
4324;DHT22;2175;51.018;6.994;2022-07-30T00:18:28;17.90;99.90
4324;DHT22;2175;51.018;6.994;2022-07-30T00:20:54;17.90;99.90
4324;DHT22;2175;51.018;6.994;2022-07-30T00:23:19;17.90;99.90
4324;DHT22;2175;51.018;6.994;2022-07-30T00:25:45;17.80;99.90
4324;DHT22;2175;51.018;6.994;2022-07-30T00:28:11;17.80;99.90
4324;DHT22;2175;51.018;6.994;2022-07-30T00:30:37;17.70;99.90
4324;DHT22;2175;51.018;6.994;2022-07-30T00:33:05;17.70;99.90
4324;DHT22;2175;51.018;6.994;2022-07-30T00:35:30;17.60;99.90
4324;DHT22;2175;51.018;6.994;2022-07-30T00:37:56;17.60;99.90
4324;DHT22;2175;51.018;6.994;2022-07-30T00:40:22;17.60;99.90
4324;DHT22;2175;51.018;6.994;2022-07-30T00:42:47;17.50;99.90
4324;DHT22;2175;51.018;6.994;2022-07-30T00:45:14;17.50;99.90
4324;DHT22;2175;51.018;6.994;2022-07-30T00:47:41;17.50;99.90
4324;DHT22;2175;51.018;6.994;2022-07-30T00:50:08;17.50;99.90
4324;DHT22;2175;51.018;6.994;2022-07-30T00:52:35;17.40;99.90
4324;DHT22;2175;51.018;6.994;2022-07-30T00:55:04;17.40;99.90
4324;DHT22;2175;51.018;6.994;2022-07-30T00:57:30;17.40;99.90
4324;DHT22;2175;51.018;6.994;2022-07-30T00:59:56;17.40;99.90
4324;DHT22;2175;51.018;6.994;2022-07-30T01:02:22;17.20;99.90
4324;DHT22;2175;51.018;6.994;2022-07-30T01:04:47;17.20;99.90
4324;DHT22;2175;51.018;6.994;2022-07-30T01:07:13;17.20;99.90
4324;DHT22;2175;51.018;6.994;2022-07-30T01:09:39;17.10;99.90
4324;DHT22;2175;51.018;6.994;2022-07-30T01:12:06;17.10;99.90
4324;DHT22;2175;51.018;6.994;2022-07-30T01:14:34;17.00;99.90
4324;DHT22;2175;51.018;6.994;2022-07-30T01:17:01;17.00;99.90
4324;DHT22;2175;51.018;6.994;2022-07-30T01:19:29;16.90;99.90
4324;DHT22;2175;51.018;6.994;2022-07-30T01:27:32;16.70;99.90
4324;DHT22;2175;51.018;6.994;2022-07-30T01:29:58;16.60;99.90
4324;DHT22;2175;51.018;6.994;2022-07-30T01:32:26;16.50;99.90
4324;DHT22;2175;51.018;6.994;2022-07-30T01:34:53;16.50;99.90
4324;DHT22;2175;51.018;6.994;2022-07-30T01:37:20;16.50;99.90
4324;DHT22;2175;51.018;6.994;2022-07-30T01:39:48;16.30;99.90
4324;DHT22;2175;51.018;6.994;2022-07-30T01:42:14;16.30;99.90
4324;DHT22;2175;51.018;6.994;2022-07-30T01:44:42;16.20;99.90
4324;DHT22;2175;51.018;6.994;2022-07-30T01:47:10;16.30;99.90
4324;DHT22;2175;51.018;6.994;2022-07-30T01:49:37;16.30;99.90
4324;DHT22;2175;51.018;6.994;2022-07-30T01:52:04;16.30;99.90
4324;DHT22;2175;51.018;6.994;2022-07-30T01:54:31;16.30;99.90
4324;DHT22;2175;51.018;6.994;2022-07-30T01:56:58;16.30;99.90
4324;DHT22;2175;51.018;6.994;2022-07-30T01:59:27;16.30;99.90
4324;DHT22;2175;51.018;6.994;2022-07-30T02:01:54;16.30;99.90
4324;DHT22;2175;51.018;6.994;2022-07-30T02:04:20;16.30;99.90
4324;DHT22;2175;51.018;6.994;2022-07-30T02:06:55;16.30;99.90
4324;DHT22;2175;51.018;6.994;2022-07-30T02:09:28;16.20;99.90
4324;DHT22;2175;51.018;6.994;2022-07-30T02:11:56;16.30;99.90
4324;DHT22;2175;51.018;6.994;2022-07-30T02:14:51;16.30;99.90
4324;DHT22;2175;51.018;6.994;2022-07-30T02:17:23;16.50;99.90
4324;DHT22;2175;51.018;6.994;2022-07-30T02:19:52;16.70;99.90
4324;DHT22;2175;51.018;6.994;2022-07-30T02:22:19;16.80;99.90
4324;DHT22;2175;51.018;6.994;2022-07-30T02:24:47;17.00;99.90
4324;DHT22;2175;51.018;6.994;2022-07-30T02:27:34;17.20;99.90
4324;DHT22;2175;51.018;6.994;2022-07-30T02:30:02;17.30;99.90
4324;DHT22;2175;51.018;6.994;2022-07-30T02:32:32;17.40;99.90
4324;DHT22;2175;51.018;6.994;2022-07-30T02:35:03;17.40;99.90
4324;DHT22;2175;51.018;6.994;2022-07-30T02:37:35;17.60;99.90
4324;DHT22;2175;51.018;6.994;2022-07-30T02:40:01;17.70;99.90
4324;DHT22;2175;51.018;6.994;2022-07-30T02:42:28;17.70;99.90
4324;DHT22;2175;51.018;6.994;2022-07-30T02:44:55;17.70;99.90
4324;DHT22;2175;51.018;6.994;2022-07-30T02:47:23;17.80;99.90
4324;DHT22;2175;51.018;6.994;2022-07-30T02:49:50;17.70;99.90
4324;DHT22;2175;51.018;6.994;2022-07-30T02:52:17;17.80;99.90
4324;DHT22;2175;51.018;6.994;2022-07-30T02:54:43;17.70;99.90
4324;DHT22;2175;51.018;6.994;2022-07-30T02:57:10;17.80;99.90
4324;DHT22;2175;51.018;6.994;2022-07-30T02:59:39;17.70;99.90
4324;DHT22;2175;51.018;6.994;2022-07-30T03:02:06;17.80;99.90
4324;DHT22;2175;51.018;6.994;2022-07-30T03:04:34;17.70;99.90
4324;DHT22;2175;51.018;6.994;2022-07-30T03:07:01;17.70;99.90
4324;DHT22;2175;51.018;6.994;2022-07-30T03:09:27;17.70;99.90
4324;DHT22;2175;51.018;6.994;2022-07-30T03:11:55;17.70;99.90
4324;DHT22;2175;51.018;6.994;2022-07-30T03:14:21;17.70;99.90
4324;DHT22;2175;51.018;6.994;2022-07-30T03:16:52;17.70;99.90
4324;DHT22;2175;51.018;6.994;2022-07-30T03:19:21;17.60;99.90
4324;DHT22;2175;51.018;6.994;2022-07-30T03:21:48;17.60;99.90
4324;DHT22;2175;51.018;6.994;2022-07-30T03:24:16;17.60;99.90
4324;DHT22;2175;51.018;6.994;2022-07-30T03:26:43;17.50;99.90
4324;DHT22;2175;51.018;6.994;2022-07-30T03:29:11;17.60;99.90
4324;DHT22;2175;51.018;6.994;2022-07-30T03:31:38;17.60;99.90
4324;DHT22;2175;51.018;6.994;2022-07-30T03:34:06;17.50;99.90
4324;DHT22;2175;51.018;6.994;2022-07-30T03:36:33;17.60;99.90
4324;DHT22;2175;51.018;6.994;2022-07-30T03:38:59;17.60;99.90
4324;DHT22;2175;51.018;6.994;2022-07-30T03:41:25;17.50;99.90
4324;DHT22;2175;51.018;6.994;2022-07-30T03:43:51;17.40;99.90
4324;DHT22;2175;51.018;6.994;2022-07-30T03:46:17;17.40;99.90
4324;DHT22;2175;51.018;6.994;2022-07-30T03:48:44;17.50;99.90
4324;DHT22;2175;51.018;6.994;2022-07-30T03:51:10;17.40;99.90
4324;DHT22;2175;51.018;6.994;2022-07-30T03:53:39;17.30;99.90
4324;DHT22;2175;51.018;6.994;2022-07-30T03:56:05;17.20;99.90
4324;DHT22;2175;51.018;6.994;2022-07-30T03:58:31;17.10;99.90
4324;DHT22;2175;51.018;6.994;2022-07-30T04:00:57;17.00;99.90
4324;DHT22;2175;51.018;6.994;2022-07-30T04:03:27;16.90;99.90
4324;DHT22;2175;51.018;6.994;2022-07-30T04:05:53;16.90;99.90
4324;DHT22;2175;51.018;6.994;2022-07-30T04:08:18;16.90;99.90
4324;DHT22;2175;51.018;6.994;2022-07-30T04:10:44;16.90;99.90
4324;DHT22;2175;51.018;6.994;2022-07-30T04:13:10;16.90;99.90
4324;DHT22;2175;51.018;6.994;2022-07-30T04:16:05;16.90;99.90
4324;DHT22;2175;51.018;6.994;2022-07-30T04:18:30;16.90;99.90
4324;DHT22;2175;51.018;6.994;2022-07-30T04:21:02;17.00;99.90
4324;DHT22;2175;51.018;6.994;2022-07-30T04:23:31;17.00;99.90
4324;DHT22;2175;51.018;6.994;2022-07-30T04:28:36;17.10;99.90
4324;DHT22;2175;51.018;6.994;2022-07-30T04:31:03;17.10;99.90
4324;DHT22;2175;51.018;6.994;2022-07-30T04:33:29;17.10;99.90
4324;DHT22;2175;51.018;6.994;2022-07-30T04:35:55;17.10;99.90
4324;DHT22;2175;51.018;6.994;2022-07-30T04:38:20;17.10;99.90
4324;DHT22;2175;51.018;6.994;2022-07-30T04:40:47;17.10;99.90
4324;DHT22;2175;51.018;6.994;2022-07-30T04:43:13;17.20;99.90
4324;DHT22;2175;51.018;6.994;2022-07-30T04:45:40;17.20;99.90
4324;DHT22;2175;51.018;6.994;2022-07-30T04:48:06;17.30;99.90
4324;DHT22;2175;51.018;6.994;2022-07-30T04:50:32;17.30;99.90
4324;DHT22;2175;51.018;6.994;2022-07-30T04:52:59;17.20;99.90
4324;DHT22;2175;51.018;6.994;2022-07-30T04:55:26;17.30;99.90
4324;DHT22;2175;51.018;6.994;2022-07-30T04:57:52;17.40;99.90
4324;DHT22;2175;51.018;6.994;2022-07-30T05:00:19;17.30;99.90
4324;DHT22;2175;51.018;6.994;2022-07-30T05:02:45;17.40;99.90
4324;DHT22;2175;51.018;6.994;2022-07-30T05:05:13;17.40;99.90
4324;DHT22;2175;51.018;6.994;2022-07-30T05:07:40;17.50;99.90
4324;DHT22;2175;51.018;6.994;2022-07-30T05:10:06;17.40;99.90
4324;DHT22;2175;51.018;6.994;2022-07-30T05:12:33;17.40;99.90
4324;DHT22;2175;51.018;6.994;2022-07-30T05:15:03;17.40;99.90
4324;DHT22;2175;51.018;6.994;2022-07-30T05:17:28;17.40;99.90
4324;DHT22;2175;51.018;6.994;2022-07-30T05:19:54;17.40;99.90
4324;DHT22;2175;51.018;6.994;2022-07-30T05:22:19;17.40;99.90
4324;DHT22;2175;51.018;6.994;2022-07-30T05:24:45;17.40;99.90
4324;DHT22;2175;51.018;6.994;2022-07-30T05:27:11;17.40;99.90
4324;DHT22;2175;51.018;6.994;2022-07-30T05:29:36;17.40;99.90
4324;DHT22;2175;51.018;6.994;2022-07-30T05:32:02;17.40;99.90
4324;DHT22;2175;51.018;6.994;2022-07-30T05:34:28;17.50;99.90
4324;DHT22;2175;51.018;6.994;2022-07-30T05:36:53;17.60;99.90
4324;DHT22;2175;51.018;6.994;2022-07-30T05:39:19;17.60;99.90
4324;DHT22;2175;51.018;6.994;2022-07-30T05:41:44;17.60;99.90
4324;DHT22;2175;51.018;6.994;2022-07-30T05:44:10;17.70;99.90
4324;DHT22;2175;51.018;6.994;2022-07-30T05:46:36;17.60;99.90
4324;DHT22;2175;51.018;6.994;2022-07-30T05:49:01;17.50;99.90
4324;DHT22;2175;51.018;6.994;2022-07-30T05:51:27;17.70;99.90
4324;DHT22;2175;51.018;6.994;2022-07-30T05:53:53;17.70;99.90
4324;DHT22;2175;51.018;6.994;2022-07-30T05:56:19;17.80;99.90
4324;DHT22;2175;51.018;6.994;2022-07-30T05:58:44;17.80;99.90
4324;DHT22;2175;51.018;6.994;2022-07-30T06:01:10;17.90;99.90
4324;DHT22;2175;51.018;6.994;2022-07-30T06:03:35;17.90;99.90
4324;DHT22;2175;51.018;6.994;2022-07-30T06:06:03;17.90;99.90
4324;DHT22;2175;51.018;6.994;2022-07-30T06:08:29;18.20;99.90
4324;DHT22;2175;51.018;6.994;2022-07-30T06:10:54;18.40;99.90
4324;DHT22;2175;51.018;6.994;2022-07-30T06:13:20;18.50;99.90
4324;DHT22;2175;51.018;6.994;2022-07-30T06:15:45;18.50;99.90
4324;DHT22;2175;51.018;6.994;2022-07-30T06:18:11;18.30;99.90
4324;DHT22;2175;51.018;6.994;2022-07-30T06:20:36;18.10;99.90
4324;DHT22;2175;51.018;6.994;2022-07-30T06:23:03;18.10;99.90
4324;DHT22;2175;51.018;6.994;2022-07-30T06:25:29;18.00;99.90
4324;DHT22;2175;51.018;6.994;2022-07-30T06:27:54;18.10;99.90
4324;DHT22;2175;51.018;6.994;2022-07-30T06:30:20;18.20;99.90
4324;DHT22;2175;51.018;6.994;2022-07-30T06:32:45;18.50;99.90
4324;DHT22;2175;51.018;6.994;2022-07-30T06:35:11;18.80;99.90
4324;DHT22;2175;51.018;6.994;2022-07-30T06:37:37;19.10;99.90
4324;DHT22;2175;51.018;6.994;2022-07-30T06:40:04;19.10;99.90
4324;DHT22;2175;51.018;6.994;2022-07-30T06:42:30;19.30;99.90
4324;DHT22;2175;51.018;6.994;2022-07-30T06:44:55;19.10;99.90
4324;DHT22;2175;51.018;6.994;2022-07-30T06:47:21;18.80;99.90
4324;DHT22;2175;51.018;6.994;2022-07-30T06:49:50;18.60;99.90
4324;DHT22;2175;51.018;6.994;2022-07-30T06:52:17;18.70;99.90
4324;DHT22;2175;51.018;6.994;2022-07-30T06:54:42;18.70;99.90
4324;DHT22;2175;51.018;6.994;2022-07-30T06:57:08;18.50;99.90
4324;DHT22;2175;51.018;6.994;2022-07-30T06:59:34;18.60;99.90
4324;DHT22;2175;51.018;6.994;2022-07-30T07:01:59;18.60;99.90
4324;DHT22;2175;51.018;6.994;2022-07-30T07:04:25;18.40;99.90
4324;DHT22;2175;51.018;6.994;2022-07-30T07:06:51;18.50;99.90
4324;DHT22;2175;51.018;6.994;2022-07-30T07:09:17;18.80;99.90
4324;DHT22;2175;51.018;6.994;2022-07-30T07:11:43;18.90;99.90
4324;DHT22;2175;51.018;6.994;2022-07-30T07:14:08;18.80;99.90
4324;DHT22;2175;51.018;6.994;2022-07-30T07:16:34;18.70;99.90
4324;DHT22;2175;51.018;6.994;2022-07-30T07:19:00;18.90;99.90
4324;DHT22;2175;51.018;6.994;2022-07-30T07:21:25;19.10;99.90
4324;DHT22;2175;51.018;6.994;2022-07-30T07:23:51;19.10;99.90
4324;DHT22;2175;51.018;6.994;2022-07-30T07:26:16;19.00;99.90
4324;DHT22;2175;51.018;6.994;2022-07-30T07:28:42;19.00;99.90
4324;DHT22;2175;51.018;6.994;2022-07-30T07:31:08;19.00;99.90
4324;DHT22;2175;51.018;6.994;2022-07-30T07:33:35;19.00;99.90
4324;DHT22;2175;51.018;6.994;2022-07-30T07:36:01;19.20;99.90
4324;DHT22;2175;51.018;6.994;2022-07-30T07:38:26;19.30;99.90
4324;DHT22;2175;51.018;6.994;2022-07-30T07:40:52;19.50;99.90
4324;DHT22;2175;51.018;6.994;2022-07-30T07:43:18;19.50;99.90
4324;DHT22;2175;51.018;6.994;2022-07-30T07:45:43;19.70;99.90
4324;DHT22;2175;51.018;6.994;2022-07-30T07:48:12;19.80;99.90
4324;DHT22;2175;51.018;6.994;2022-07-30T07:50:38;19.90;99.90
4324;DHT22;2175;51.018;6.994;2022-07-30T07:53:04;19.80;99.90
4324;DHT22;2175;51.018;6.994;2022-07-30T07:55:30;19.90;99.90
4324;DHT22;2175;51.018;6.994;2022-07-30T07:57:56;19.80;99.90
4324;DHT22;2175;51.018;6.994;2022-07-30T08:00:22;19.80;99.90
4324;DHT22;2175;51.018;6.994;2022-07-30T08:02:47;19.90;99.90
4324;DHT22;2175;51.018;6.994;2022-07-30T08:05:14;19.90;99.90
4324;DHT22;2175;51.018;6.994;2022-07-30T08:07:41;20.10;99.90
4324;DHT22;2175;51.018;6.994;2022-07-30T08:10:08;20.30;99.90
4324;DHT22;2175;51.018;6.994;2022-07-30T08:12:34;20.30;99.90
4324;DHT22;2175;51.018;6.994;2022-07-30T08:15:00;20.40;99.90
4324;DHT22;2175;51.018;6.994;2022-07-30T08:17:26;20.60;99.90
4324;DHT22;2175;51.018;6.994;2022-07-30T08:19:51;20.60;99.90
4324;DHT22;2175;51.018;6.994;2022-07-30T08:22:17;21.10;99.90
4324;DHT22;2175;51.018;6.994;2022-07-30T08:24:43;21.10;99.90
4324;DHT22;2175;51.018;6.994;2022-07-30T08:27:09;21.30;99.90
4324;DHT22;2175;51.018;6.994;2022-07-30T08:29:35;21.60;99.90
4324;DHT22;2175;51.018;6.994;2022-07-30T08:32:01;21.80;99.90
4324;DHT22;2175;51.018;6.994;2022-07-30T08:34:27;22.10;99.90
4324;DHT22;2175;51.018;6.994;2022-07-30T08:36:54;22.10;99.90
4324;DHT22;2175;51.018;6.994;2022-07-30T08:39:19;21.80;99.90
4324;DHT22;2175;51.018;6.994;2022-07-30T08:41:45;21.50;99.90
4324;DHT22;2175;51.018;6.994;2022-07-30T08:44:11;21.30;99.90
4324;DHT22;2175;51.018;6.994;2022-07-30T08:46:40;21.00;99.90
4324;DHT22;2175;51.018;6.994;2022-07-30T08:49:06;21.60;99.90
4324;DHT22;2175;51.018;6.994;2022-07-30T08:51:34;22.20;99.90
4324;DHT22;2175;51.018;6.994;2022-07-30T08:54:00;21.80;99.90
4324;DHT22;2175;51.018;6.994;2022-07-30T08:56:27;22.00;99.90
4324;DHT22;2175;51.018;6.994;2022-07-30T08:58:53;22.10;99.90
4324;DHT22;2175;51.018;6.994;2022-07-30T09:01:21;22.70;99.90
4324;DHT22;2175;51.018;6.994;2022-07-30T09:03:46;23.10;99.90
4324;DHT22;2175;51.018;6.994;2022-07-30T09:06:12;23.00;99.90
4324;DHT22;2175;51.018;6.994;2022-07-30T09:08:39;23.00;99.90
4324;DHT22;2175;51.018;6.994;2022-07-30T09:11:05;22.50;99.90
4324;DHT22;2175;51.018;6.994;2022-07-30T09:13:36;22.20;99.90
4324;DHT22;2175;51.018;6.994;2022-07-30T09:16:07;22.30;99.90
4324;DHT22;2175;51.018;6.994;2022-07-30T09:18:42;22.70;99.90
4324;DHT22;2175;51.018;6.994;2022-07-30T09:21:22;22.50;99.90
4324;DHT22;2175;51.018;6.994;2022-07-30T09:24:03;22.40;99.90
4324;DHT22;2175;51.018;6.994;2022-07-30T09:26:30;22.40;99.90
4324;DHT22;2175;51.018;6.994;2022-07-30T09:29:18;22.50;99.90
4324;DHT22;2175;51.018;6.994;2022-07-30T09:31:57;22.30;99.90
4324;DHT22;2175;51.018;6.994;2022-07-30T09:34:27;22.20;99.90
4324;DHT22;2175;51.018;6.994;2022-07-30T09:36:55;22.10;99.90
4324;DHT22;2175;51.018;6.994;2022-07-30T09:39:38;22.30;99.90
4324;DHT22;2175;51.018;6.994;2022-07-30T09:42:19;22.90;99.90
4324;DHT22;2175;51.018;6.994;2022-07-30T09:44:45;23.70;99.90
4324;DHT22;2175;51.018;6.994;2022-07-30T09:47:32;24.00;99.90
4324;DHT22;2175;51.018;6.994;2022-07-30T09:50:11;23.60;99.90
4324;DHT22;2175;51.018;6.994;2022-07-30T09:52:40;23.20;99.90
4324;DHT22;2175;51.018;6.994;2022-07-30T09:55:07;22.80;99.90
4324;DHT22;2175;51.018;6.994;2022-07-30T09:57:32;22.80;99.90
4324;DHT22;2175;51.018;6.994;2022-07-30T10:00:17;23.30;99.90
4324;DHT22;2175;51.018;6.994;2022-07-30T10:02:43;24.10;99.90
4324;DHT22;2175;51.018;6.994;2022-07-30T10:05:10;24.60;99.90
4324;DHT22;2175;51.018;6.994;2022-07-30T10:07:36;24.40;99.90
4324;DHT22;2175;51.018;6.994;2022-07-30T10:10:02;24.40;99.90
4324;DHT22;2175;51.018;6.994;2022-07-30T10:12:28;24.10;99.90
4324;DHT22;2175;51.018;6.994;2022-07-30T10:14:56;24.30;99.90
4324;DHT22;2175;51.018;6.994;2022-07-30T10:17:23;24.30;99.90
4324;DHT22;2175;51.018;6.994;2022-07-30T10:19:49;24.40;99.90
4324;DHT22;2175;51.018;6.994;2022-07-30T10:22:15;24.60;99.90
4324;DHT22;2175;51.018;6.994;2022-07-30T10:24:41;24.90;99.90
4324;DHT22;2175;51.018;6.994;2022-07-30T10:27:08;25.00;99.90
4324;DHT22;2175;51.018;6.994;2022-07-30T10:29:36;24.90;99.90
4324;DHT22;2175;51.018;6.994;2022-07-30T10:32:03;24.80;99.90
4324;DHT22;2175;51.018;6.994;2022-07-30T10:34:29;24.80;99.90
4324;DHT22;2175;51.018;6.994;2022-07-30T10:36:59;25.10;99.90
4324;DHT22;2175;51.018;6.994;2022-07-30T10:39:34;25.00;99.90
4324;DHT22;2175;51.018;6.994;2022-07-30T10:45:18;25.00;99.90
4324;DHT22;2175;51.018;6.994;2022-07-30T10:47:48;24.70;99.90
4324;DHT22;2175;51.018;6.994;2022-07-30T10:50:16;24.60;99.90
4324;DHT22;2175;51.018;6.994;2022-07-30T10:55:17;24.00;99.90
4324;DHT22;2175;51.018;6.994;2022-07-30T10:58:15;23.90;99.90
4324;DHT22;2175;51.018;6.994;2022-07-30T11:03:26;24.10;99.90
4324;DHT22;2175;51.018;6.994;2022-07-30T11:08:44;24.00;99.90
4324;DHT22;2175;51.018;6.994;2022-07-30T11:13:59;24.30;99.90
4324;DHT22;2175;51.018;6.994;2022-07-30T11:19:17;24.60;99.90
4324;DHT22;2175;51.018;6.994;2022-07-30T11:21:46;24.60;99.90
4324;DHT22;2175;51.018;6.994;2022-07-30T11:24:46;24.60;99.90
4324;DHT22;2175;51.018;6.994;2022-07-30T11:29:59;24.40;99.90
4324;DHT22;2175;51.018;6.994;2022-07-30T11:32:30;24.60;99.90
4324;DHT22;2175;51.018;6.994;2022-07-30T11:35:16;24.40;99.90
4324;DHT22;2175;51.018;6.994;2022-07-30T11:40:34;24.00;99.90
4324;DHT22;2175;51.018;6.994;2022-07-30T11:43:30;24.20;99.90
4324;DHT22;2175;51.018;6.994;2022-07-30T11:48:28;24.30;99.90
4324;DHT22;2175;51.018;6.994;2022-07-30T11:50:54;24.40;99.90
4324;DHT22;2175;51.018;6.994;2022-07-30T11:53:21;24.50;99.90
4324;DHT22;2175;51.018;6.994;2022-07-30T11:55:55;24.60;99.90
4324;DHT22;2175;51.018;6.994;2022-07-30T11:58:32;24.40;99.90
4324;DHT22;2175;51.018;6.994;2022-07-30T12:01:01;24.50;99.90
4324;DHT22;2175;51.018;6.994;2022-07-30T12:03:28;24.60;99.90
4324;DHT22;2175;51.018;6.994;2022-07-30T12:06:05;24.60;99.90
4324;DHT22;2175;51.018;6.994;2022-07-30T12:08:50;24.50;99.90
4324;DHT22;2175;51.018;6.994;2022-07-30T12:11:17;24.40;99.90
4324;DHT22;2175;51.018;6.994;2022-07-30T12:13:43;24.50;99.90
4324;DHT22;2175;51.018;6.994;2022-07-30T12:16:19;24.70;99.90
4324;DHT22;2175;51.018;6.994;2022-07-30T12:18:45;24.80;99.90
4324;DHT22;2175;51.018;6.994;2022-07-30T12:21:11;24.80;99.90
4324;DHT22;2175;51.018;6.994;2022-07-30T12:23:40;24.70;99.90
4324;DHT22;2175;51.018;6.994;2022-07-30T12:26:30;24.60;99.90
4324;DHT22;2175;51.018;6.994;2022-07-30T12:28:57;24.50;99.90
4324;DHT22;2175;51.018;6.994;2022-07-30T12:31:26;24.40;99.90
4324;DHT22;2175;51.018;6.994;2022-07-30T12:33:51;24.40;99.90
4324;DHT22;2175;51.018;6.994;2022-07-30T12:36:26;24.40;99.90
4324;DHT22;2175;51.018;6.994;2022-07-30T12:38:52;24.40;99.90
4324;DHT22;2175;51.018;6.994;2022-07-30T12:41:19;24.50;99.90
4324;DHT22;2175;51.018;6.994;2022-07-30T12:43:50;24.60;99.90
4324;DHT22;2175;51.018;6.994;2022-07-30T12:46:24;24.60;99.90
4324;DHT22;2175;51.018;6.994;2022-07-30T12:49:02;24.50;99.90
4324;DHT22;2175;51.018;6.994;2022-07-30T12:51:33;24.40;99.90
4324;DHT22;2175;51.018;6.994;2022-07-30T12:54:01;24.50;99.90
4324;DHT22;2175;51.018;6.994;2022-07-30T12:56:38;24.50;99.90
4324;DHT22;2175;51.018;6.994;2022-07-30T12:59:04;24.50;99.90
4324;DHT22;2175;51.018;6.994;2022-07-30T13:01:44;24.40;99.90
4324;DHT22;2175;51.018;6.994;2022-07-30T13:04:11;24.40;99.90
4324;DHT22;2175;51.018;6.994;2022-07-30T13:06:37;24.50;99.90
4324;DHT22;2175;51.018;6.994;2022-07-30T13:09:05;24.60;99.90
4324;DHT22;2175;51.018;6.994;2022-07-30T13:11:41;24.60;99.90
4324;DHT22;2175;51.018;6.994;2022-07-30T13:14:08;24.60;99.90
4324;DHT22;2175;51.018;6.994;2022-07-30T13:16:37;24.50;99.90
4324;DHT22;2175;51.018;6.994;2022-07-30T13:19:07;24.60;99.90
4324;DHT22;2175;51.018;6.994;2022-07-30T13:21:33;24.60;99.90
4324;DHT22;2175;51.018;6.994;2022-07-30T13:23:59;24.70;99.90
4324;DHT22;2175;51.018;6.994;2022-07-30T13:26:25;24.80;99.90
4324;DHT22;2175;51.018;6.994;2022-07-30T13:28:54;24.80;99.90
4324;DHT22;2175;51.018;6.994;2022-07-30T13:31:20;24.70;99.90
4324;DHT22;2175;51.018;6.994;2022-07-30T13:33:46;24.70;99.90
4324;DHT22;2175;51.018;6.994;2022-07-30T13:36:12;24.60;99.90
4324;DHT22;2175;51.018;6.994;2022-07-30T13:38:38;24.60;99.90
4324;DHT22;2175;51.018;6.994;2022-07-30T13:41:04;24.40;99.90
4324;DHT22;2175;51.018;6.994;2022-07-30T13:43:30;24.30;99.90
4324;DHT22;2175;51.018;6.994;2022-07-30T13:45:55;24.20;99.90
4324;DHT22;2175;51.018;6.994;2022-07-30T13:48:22;24.20;99.90
4324;DHT22;2175;51.018;6.994;2022-07-30T13:50:48;24.20;99.90
4324;DHT22;2175;51.018;6.994;2022-07-30T13:53:15;24.30;99.90
4324;DHT22;2175;51.018;6.994;2022-07-30T13:55:41;24.40;99.90
4324;DHT22;2175;51.018;6.994;2022-07-30T13:58:10;24.50;99.90
4324;DHT22;2175;51.018;6.994;2022-07-30T14:00:36;24.30;99.90
4324;DHT22;2175;51.018;6.994;2022-07-30T14:03:08;24.40;99.90
4324;DHT22;2175;51.018;6.994;2022-07-30T14:05:35;24.70;99.90
4324;DHT22;2175;51.018;6.994;2022-07-30T14:08:02;24.70;99.90
4324;DHT22;2175;51.018;6.994;2022-07-30T14:10:28;24.50;99.90
4324;DHT22;2175;51.018;6.994;2022-07-30T14:12:54;24.50;99.90
4324;DHT22;2175;51.018;6.994;2022-07-30T14:15:21;24.60;99.90
4324;DHT22;2175;51.018;6.994;2022-07-30T14:17:47;24.50;99.90
4324;DHT22;2175;51.018;6.994;2022-07-30T14:20:13;24.50;99.90
4324;DHT22;2175;51.018;6.994;2022-07-30T14:22:39;24.40;99.90
4324;DHT22;2175;51.018;6.994;2022-07-30T14:25:05;24.40;99.90
4324;DHT22;2175;51.018;6.994;2022-07-30T14:27:31;24.40;99.90
4324;DHT22;2175;51.018;6.994;2022-07-30T14:29:56;24.50;99.90
4324;DHT22;2175;51.018;6.994;2022-07-30T14:32:22;24.50;99.90
4324;DHT22;2175;51.018;6.994;2022-07-30T14:34:48;24.50;99.90
4324;DHT22;2175;51.018;6.994;2022-07-30T14:37:13;24.40;99.90
4324;DHT22;2175;51.018;6.994;2022-07-30T14:39:39;24.30;99.90
4324;DHT22;2175;51.018;6.994;2022-07-30T14:42:05;24.20;99.90
4324;DHT22;2175;51.018;6.994;2022-07-30T14:44:31;24.20;99.90
4324;DHT22;2175;51.018;6.994;2022-07-30T14:46:57;24.20;99.90
4324;DHT22;2175;51.018;6.994;2022-07-30T14:49:22;24.40;99.90
4324;DHT22;2175;51.018;6.994;2022-07-30T14:51:48;24.50;99.90
4324;DHT22;2175;51.018;6.994;2022-07-30T14:54:14;24.50;99.90
4324;DHT22;2175;51.018;6.994;2022-07-30T14:56:40;24.30;99.90
4324;DHT22;2175;51.018;6.994;2022-07-30T14:59:06;24.10;99.90
4324;DHT22;2175;51.018;6.994;2022-07-30T15:01:31;24.00;99.90
4324;DHT22;2175;51.018;6.994;2022-07-30T15:03:58;23.90;99.90
4324;DHT22;2175;51.018;6.994;2022-07-30T15:06:24;24.10;99.90
4324;DHT22;2175;51.018;6.994;2022-07-30T15:08:50;24.00;99.90
4324;DHT22;2175;51.018;6.994;2022-07-30T15:11:15;24.20;99.90
4324;DHT22;2175;51.018;6.994;2022-07-30T15:13:41;24.10;99.90
4324;DHT22;2175;51.018;6.994;2022-07-30T15:16:06;24.10;99.90
4324;DHT22;2175;51.018;6.994;2022-07-30T15:18:32;23.80;99.90
4324;DHT22;2175;51.018;6.994;2022-07-30T15:20:58;23.80;99.90
4324;DHT22;2175;51.018;6.994;2022-07-30T15:23:24;23.70;99.90
4324;DHT22;2175;51.018;6.994;2022-07-30T15:25:50;23.70;99.90
4324;DHT22;2175;51.018;6.994;2022-07-30T15:28:16;23.90;99.90
4324;DHT22;2175;51.018;6.994;2022-07-30T15:30:42;24.20;99.90
4324;DHT22;2175;51.018;6.994;2022-07-30T15:33:07;24.50;99.90
4324;DHT22;2175;51.018;6.994;2022-07-30T15:35:33;24.40;99.90
4324;DHT22;2175;51.018;6.994;2022-07-30T15:37:59;24.40;99.90
4324;DHT22;2175;51.018;6.994;2022-07-30T15:40:24;24.20;99.90
4324;DHT22;2175;51.018;6.994;2022-07-30T15:42:50;24.10;99.90
4324;DHT22;2175;51.018;6.994;2022-07-30T15:45:16;24.00;99.90
4324;DHT22;2175;51.018;6.994;2022-07-30T15:47:43;24.10;99.90
4324;DHT22;2175;51.018;6.994;2022-07-30T15:50:09;24.10;99.90
4324;DHT22;2175;51.018;6.994;2022-07-30T15:52:35;24.10;99.90
4324;DHT22;2175;51.018;6.994;2022-07-30T15:55:03;24.20;99.90
4324;DHT22;2175;51.018;6.994;2022-07-30T15:57:29;24.10;99.90
4324;DHT22;2175;51.018;6.994;2022-07-30T15:59:56;24.20;99.90
4324;DHT22;2175;51.018;6.994;2022-07-30T16:02:21;24.40;99.90
4324;DHT22;2175;51.018;6.994;2022-07-30T16:04:47;24.60;99.90
4324;DHT22;2175;51.018;6.994;2022-07-30T16:07:12;24.60;99.90
4324;DHT22;2175;51.018;6.994;2022-07-30T16:09:38;24.50;99.90
4324;DHT22;2175;51.018;6.994;2022-07-30T16:12:04;24.40;99.90
4324;DHT22;2175;51.018;6.994;2022-07-30T16:14:30;24.30;99.90
4324;DHT22;2175;51.018;6.994;2022-07-30T16:16:56;24.30;99.90
4324;DHT22;2175;51.018;6.994;2022-07-30T16:19:21;24.20;99.90
4324;DHT22;2175;51.018;6.994;2022-07-30T16:21:47;24.00;99.90
4324;DHT22;2175;51.018;6.994;2022-07-30T16:24:13;24.20;99.90
4324;DHT22;2175;51.018;6.994;2022-07-30T16:26:38;24.30;99.90
4324;DHT22;2175;51.018;6.994;2022-07-30T16:29:04;24.40;99.90
4324;DHT22;2175;51.018;6.994;2022-07-30T16:31:30;24.30;99.90
4324;DHT22;2175;51.018;6.994;2022-07-30T16:33:56;24.20;99.90
4324;DHT22;2175;51.018;6.994;2022-07-30T16:36:22;24.20;99.90
4324;DHT22;2175;51.018;6.994;2022-07-30T16:38:47;24.30;99.90